Time;durP1;ratioP1;P1;durP2;ratioP2;P2;SDS_P1;SDS_P2;PMS_P1;PMS_P2;Temp;Humidity;BMP_temperature;BMP_pressure;BME280_temperature;BME280_humidity;BME280_pressure;Samples;Min_cycle;Max_cycle;Signal;HPM_P1;HPM_P2
2021/06/26 08:38:23;;;;;;;7.03;5.80;;;19.40;99.90;;;;;;12014307;27;20586;-58
2021/06/26 08:44:12;;;;;;;9.60;6.05;;;20.00;99.90;;;;;;11980015;28;20119;-59
2021/06/26 08:49:59;;;;;;;9.25;6.30;;;20.70;99.90;;;;;;11947889;28;20041;-59
2021/06/26 09:01:05;;;;;;;7.57;5.82;;;21.20;99.90;;;;;;12037460;27;20769;-55
2021/06/26 09:06:54;;;;;;;8.52;5.35;;;21.10;99.90;;;;;;11979084;28;20080;-56
2021/06/26 09:12:42;;;;;;;9.32;5.40;;;21.30;99.90;;;;;;12005963;28;20052;-57
2021/06/26 09:18:46;;;;;;;9.32;5.35;;;21.50;99.90;;;;;;12022019;28;20060;-56
2021/06/26 09:24:39;;;;;;;5.70;4.43;;;21.60;99.90;;;;;;12016904;28;20102;-58
2021/06/26 09:30:36;;;;;;;5.32;4.50;;;21.90;99.90;;;;;;12018797;28;20155;-56
2021/06/26 09:36:30;;;;;;;5.32;4.13;;;22.20;99.90;;;;;;12019623;28;20045;-58
2021/06/26 09:42:19;;;;;;;9.02;4.22;;;22.50;99.90;;;;;;12016230;28;20455;-58
2021/06/26 09:48:07;;;;;;;6.30;4.45;;;22.80;99.90;;;;;;12017400;28;20060;-58
2021/06/26 09:54:00;;;;;;;4.68;3.60;;;22.80;99.90;;;;;;12014753;28;20056;-57
2021/06/26 09:59:49;;;;;;;5.67;3.80;;;22.70;99.90;;;;;;12018030;28;20081;-56
2021/06/26 10:05:36;;;;;;;15.68;11.27;;;22.60;99.90;;;;;;12016769;28;20045;-57
2021/06/26 10:11:24;;;;;;;6.00;4.68;;;22.60;99.90;;;;;;11988798;28;20053;-59
2021/06/26 10:17:12;;;;;;;11.18;6.65;;;22.50;99.90;;;;;;11983851;28;20094;-58
2021/06/26 10:23:01;;;;;;;7.70;5.38;;;22.60;99.90;;;;;;11983869;28;20048;-57
2021/06/26 10:28:50;;;;;;;7.18;4.78;;;22.70;99.90;;;;;;11985281;28;20041;-58
2021/06/26 10:34:42;;;;;;;5.47;4.55;;;22.80;99.90;;;;;;11983130;28;20053;-58
2021/06/26 10:46:54;;;;;;;5.80;5.18;;;22.70;99.90;;;;;;11925521;28;20416;-58
2021/06/26 10:52:51;;;;;;;5.82;4.38;;;22.60;99.90;;;;;;11986315;28;20056;-59
2021/06/26 10:58:39;;;;;;;5.95;4.32;;;22.50;99.90;;;;;;11986428;28;20056;-57
2021/06/26 11:04:28;;;;;;;4.72;4.03;;;22.60;99.90;;;;;;11987734;28;20060;-57
2021/06/26 11:10:16;;;;;;;7.63;4.38;;;23.00;99.90;;;;;;11984580;28;20101;-58
2021/06/26 11:16:06;;;;;;;6.95;4.50;;;23.50;99.90;;;;;;11940571;28;20049;-56
2021/06/26 11:21:56;;;;;;;5.90;4.45;;;23.70;99.90;;;;;;11986939;28;20060;-57
2021/06/26 11:27:43;;;;;;;6.53;4.70;;;23.80;99.90;;;;;;11983077;28;20536;-57
2021/06/26 11:33:31;;;;;;;6.25;4.45;;;23.90;99.90;;;;;;11982498;28;20055;-58
2021/06/26 11:39:22;;;;;;;6.80;4.88;;;23.90;99.90;;;;;;11983623;28;20648;-57
2021/06/26 11:45:13;;;;;;;6.80;4.50;;;23.90;99.90;;;;;;11981823;28;20053;-57
2021/06/26 11:51:04;;;;;;;8.85;4.78;;;23.80;99.90;;;;;;11987503;28;20061;-58
2021/06/26 11:56:53;;;;;;;7.55;5.30;;;23.70;99.90;;;;;;11983590;28;20075;-57
2021/06/26 12:02:40;;;;;;;7.38;6.30;;;23.70;99.90;;;;;;11984882;28;21036;-57
2021/06/26 12:08:27;;;;;;;10.13;6.10;;;23.80;99.90;;;;;;11984901;28;20055;-58
2021/06/26 12:14:49;;;;;;;7.63;5.68;;;24.00;99.90;;;;;;11949016;28;20052;-57
2021/06/26 12:20:38;;;;;;;5.53;4.47;;;24.40;99.90;;;;;;11981282;28;20053;-58
2021/06/26 12:26:27;;;;;;;8.02;6.00;;;24.50;99.90;;;;;;11985426;28;20060;-57
2021/06/26 12:32:26;;;;;;;9.02;5.55;;;24.50;99.90;;;;;;11982927;28;20048;-58
2021/06/26 12:38:14;;;;;;;8.55;6.35;;;24.40;99.90;;;;;;11970932;28;20044;-58
2021/06/26 12:44:02;;;;;;;10.52;7.38;;;24.50;99.90;;;;;;11977922;28;20057;-58
2021/06/26 12:50:02;;;;;;;11.05;7.43;;;24.60;99.90;;;;;;11982541;28;20079;-58
2021/06/26 12:56:01;;;;;;;10.85;7.50;;;24.50;99.90;;;;;;11979752;28;20049;-58
2021/06/26 13:01:54;;;;;;;11.18;6.47;;;24.30;99.90;;;;;;11983918;28;20040;-58
2021/06/26 13:07:43;;;;;;;10.00;7.27;;;24.40;99.90;;;;;;11955955;28;20068;-58
2021/06/26 13:13:30;;;;;;;9.13;5.82;;;24.70;99.90;;;;;;11981635;28;20380;-59
2021/06/26 13:19:17;;;;;;;7.13;5.57;;;24.90;99.90;;;;;;11983705;28;20838;-58
2021/06/26 13:25:06;;;;;;;6.53;5.18;;;25.00;99.90;;;;;;11981596;28;20091;-56
2021/06/26 13:30:53;;;;;;;7.75;5.88;;;25.10;99.90;;;;;;11984787;28;20037;-59
2021/06/26 13:36:40;;;;;;;10.00;5.28;;;25.30;99.90;;;;;;11983504;28;20059;-58
2021/06/26 13:42:28;;;;;;;9.60;5.63;;;25.40;99.90;;;;;;11980329;28;20079;-59
2021/06/26 13:48:15;;;;;;;6.88;5.13;;;25.40;99.90;;;;;;11990788;28;20053;-57
2021/06/26 13:54:02;;;;;;;8.73;5.10;;;25.50;99.90;;;;;;11987962;28;20052;-58
2021/06/26 13:59:55;;;;;;;6.95;5.63;;;25.50;99.90;;;;;;11988246;28;20053;-58
2021/06/26 14:05:42;;;;;;;8.13;5.70;;;25.60;99.90;;;;;;11987178;28;20527;-57
2021/06/26 14:11:29;;;;;;;8.52;5.20;;;25.60;99.90;;;;;;11983866;28;20299;-60
2021/06/26 14:17:17;;;;;;;10.52;5.57;;;25.70;99.90;;;;;;11981752;28;20481;-59
2021/06/26 14:23:05;;;;;;;8.30;5.20;;;25.80;99.90;;;;;;11985348;28;20034;-58
2021/06/26 14:28:51;;;;;;;10.05;5.40;;;25.90;99.90;;;;;;11983589;28;20559;-59
2021/06/26 14:34:40;;;;;;;6.40;5.03;;;26.00;99.90;;;;;;11983997;28;20068;-58
2021/06/26 14:40:26;;;;;;;8.73;5.35;;;25.80;99.90;;;;;;11970630;28;20041;-58
2021/06/26 14:46:13;;;;;;;8.75;6.20;;;25.50;99.90;;;;;;11978085;28;20718;-59
2021/06/26 14:52:02;;;;;;;7.00;5.63;;;25.40;99.90;;;;;;11983754;28;20525;-58
2021/06/26 14:57:49;;;;;;;8.00;6.13;;;25.30;99.90;;;;;;11995036;28;20037;-59
2021/06/26 15:03:36;;;;;;;7.35;5.32;;;25.30;99.90;;;;;;11994653;28;20129;-59
2021/06/26 15:09:25;;;;;;;9.38;5.80;;;25.20;99.90;;;;;;11994561;28;20076;-59
2021/06/26 15:15:12;;;;;;;8.02;5.60;;;25.10;99.90;;;;;;11995119;28;20059;-59
2021/06/26 15:20:59;;;;;;;8.60;6.45;;;24.90;99.90;;;;;;11994897;28;20038;-58
2021/06/26 15:26:47;;;;;;;8.07;6.20;;;24.80;99.90;;;;;;11990004;28;20425;-59
2021/06/26 15:32:34;;;;;;;10.30;6.95;;;25.10;99.90;;;;;;11989292;28;20063;-59
2021/06/26 15:38:22;;;;;;;9.93;6.80;;;25.10;99.90;;;;;;11993804;28;20053;-59
2021/06/26 15:44:19;;;;;;;11.77;6.68;;;25.10;99.90;;;;;;11993297;28;20061;-60
2021/06/26 15:50:07;;;;;;;9.32;5.72;;;25.10;99.90;;;;;;11993217;28;20052;-58
2021/06/26 15:56:01;;;;;;;8.35;5.90;;;25.10;99.90;;;;;;11994762;28;20050;-59
2021/06/26 16:01:52;;;;;;;7.88;5.55;;;25.00;99.90;;;;;;11992923;28;20049;-59
2021/06/26 16:07:41;;;;;;;6.50;5.45;;;25.00;99.90;;;;;;11991610;28;20459;-60
2021/06/26 16:13:28;;;;;;;7.70;5.45;;;25.20;99.90;;;;;;11992483;28;20045;-60
2021/06/26 16:19:17;;;;;;;8.80;6.60;;;25.30;99.90;;;;;;11980008;28;20038;-60
2021/06/26 16:25:04;;;;;;;8.18;5.63;;;25.30;99.90;;;;;;11968667;28;20118;-59
2021/06/26 16:30:51;;;;;;;8.43;5.80;;;25.30;99.90;;;;;;11986516;28;20048;-60
2021/06/26 16:36:40;;;;;;;7.28;4.88;;;25.20;99.90;;;;;;11993029;28;20083;-59
2021/06/26 16:42:27;;;;;;;5.40;4.88;;;25.20;99.90;;;;;;11992904;28;20081;-57
2021/06/26 16:48:14;;;;;;;5.30;4.47;;;25.30;99.90;;;;;;11991221;28;20049;-59
2021/06/26 16:54:02;;;;;;;7.65;4.95;;;25.60;99.90;;;;;;11991066;28;20182;-59
2021/06/26 16:59:49;;;;;;;9.23;4.80;;;25.80;99.90;;;;;;11990968;28;20038;-60
2021/06/26 17:05:36;;;;;;;7.18;5.35;;;25.90;99.90;;;;;;11990064;28;20522;-61
2021/06/26 17:11:24;;;;;;;7.20;4.97;;;25.80;99.90;;;;;;11988217;28;20049;-58
2021/06/26 17:17:11;;;;;;;7.47;5.18;;;25.50;99.90;;;;;;11944496;28;20034;-59
2021/06/26 17:22:58;;;;;;;7.53;5.40;;;25.20;99.90;;;;;;11978402;28;20061;-59
2021/06/26 17:28:47;;;;;;;7.65;5.63;;;24.90;99.90;;;;;;11968709;28;20163;-59
2021/06/26 17:34:34;;;;;;;8.25;5.43;;;24.60;99.90;;;;;;11991031;28;20045;-58
2021/06/26 17:40:21;;;;;;;8.10;5.20;;;24.50;99.90;;;;;;11941747;28;20045;-59
2021/06/26 17:46:09;;;;;;;7.05;5.18;;;24.40;99.90;;;;;;11989593;28;20069;-60
2021/06/26 17:51:56;;;;;;;10.10;5.65;;;24.40;99.90;;;;;;11997874;28;20060;-57
2021/06/26 17:57:43;;;;;;;6.75;5.05;;;24.30;99.90;;;;;;11973749;28;20536;-58
2021/06/26 18:03:31;;;;;;;7.15;5.20;;;24.20;99.90;;;;;;11998237;28;20041;-60
2021/06/26 18:09:18;;;;;;;7.05;5.47;;;24.20;99.90;;;;;;11997089;28;20456;-61
2021/06/26 18:15:06;;;;;;;8.93;5.60;;;24.10;99.90;;;;;;11997702;28;20048;-59
2021/06/26 18:20:56;;;;;;;7.78;5.80;;;24.20;99.90;;;;;;11998034;28;20053;-55
2021/06/26 18:26:43;;;;;;;8.02;5.93;;;24.10;99.90;;;;;;11975164;28;20049;-53
2021/06/26 18:32:30;;;;;;;7.82;5.97;;;24.10;99.90;;;;;;11959544;28;20063;-55
2021/06/26 18:38:19;;;;;;;9.05;6.30;;;24.00;99.90;;;;;;11990856;28;20045;-53
2021/06/26 18:44:06;;;;;;;17.23;6.80;;;23.90;99.90;;;;;;11996086;28;20060;-51
2021/06/26 18:49:53;;;;;;;8.70;6.07;;;23.90;99.90;;;;;;11950974;28;20640;-55
2021/06/26 18:55:43;;;;;;;7.85;5.90;;;23.80;99.90;;;;;;11953674;28;20048;-54
2021/06/26 19:01:30;;;;;;;15.35;5.90;;;23.80;99.90;;;;;;11948400;28;20046;-54
2021/06/26 19:07:17;;;;;;;9.02;5.85;;;23.70;99.90;;;;;;11967182;28;20142;-55
2021/06/26 19:13:05;;;;;;;8.13;5.22;;;23.60;99.90;;;;;;11998864;28;20045;-54
2021/06/26 19:18:58;;;;;;;7.32;5.45;;;23.60;99.90;;;;;;11963654;28;20371;-52
2021/06/26 19:24:44;;;;;;;7.63;6.23;;;23.50;99.90;;;;;;11986439;28;20073;-54
2021/06/26 19:30:41;;;;;;;7.40;5.88;;;23.50;99.90;;;;;;11991027;28;20045;-52
2021/06/26 19:36:28;;;;;;;11.52;6.03;;;23.50;99.90;;;;;;11991934;28;20049;-55
2021/06/26 19:42:22;;;;;;;10.88;5.97;;;23.50;99.90;;;;;;11993574;28;20047;-52
2021/06/26 19:48:12;;;;;;;8.70;6.13;;;23.40;99.90;;;;;;11960025;28;20049;-53
2021/06/26 19:53:59;;;;;;;9.80;6.78;;;23.30;99.90;;;;;;11946386;28;20060;-54
2021/06/26 19:59:46;;;;;;;8.57;6.20;;;23.30;99.90;;;;;;11970144;28;20034;-55
2021/06/26 20:05:34;;;;;;;7.38;6.38;;;23.20;99.90;;;;;;11950768;28;20057;-54
2021/06/26 20:11:21;;;;;;;11.65;7.25;;;23.10;99.90;;;;;;11972503;28;20048;-54
2021/06/26 20:17:08;;;;;;;9.75;6.65;;;23.10;99.90;;;;;;11980831;28;20053;-52
2021/06/26 20:22:56;;;;;;;8.10;6.88;;;23.00;99.90;;;;;;11993832;28;20049;-54
2021/06/26 20:28:43;;;;;;;13.30;6.97;;;23.00;99.90;;;;;;11980115;28;20154;-54
2021/06/26 20:34:30;;;;;;;9.25;7.18;;;23.00;99.90;;;;;;11979785;28;20539;-54
2021/06/26 20:40:19;;;;;;;10.00;6.70;;;23.00;99.90;;;;;;11981422;28;20068;-56
2021/06/26 20:46:07;;;;;;;8.52;6.93;;;22.90;99.90;;;;;;11982236;28;20291;-57
2021/06/26 20:51:54;;;;;;;9.55;7.28;;;22.90;99.90;;;;;;11980698;28;20049;-57
2021/06/26 20:57:42;;;;;;;10.30;7.00;;;22.90;99.90;;;;;;11981454;28;20166;-55
2021/06/26 21:03:29;;;;;;;53.40;37.47;;;22.90;99.90;;;;;;11974483;28;20053;-55
2021/06/26 21:09:18;;;;;;;12.98;8.63;;;22.80;99.90;;;;;;11984147;28;20053;-57
2021/06/26 21:15:08;;;;;;;13.55;7.80;;;22.80;99.90;;;;;;11978156;28;20041;-56
2021/06/26 21:20:55;;;;;;;17.00;7.63;;;22.80;99.90;;;;;;11990586;28;20038;-56
2021/06/26 21:26:42;;;;;;;14.68;7.53;;;22.70;99.90;;;;;;11987476;28;20045;-57
2021/06/26 21:32:48;;;;;;;20.33;13.77;;;22.70;99.90;;;;;;11976079;28;20075;-56
2021/06/26 21:38:35;;;;;;;11.32;7.95;;;22.70;99.90;;;;;;11978625;28;21078;-56
2021/06/26 21:44:22;;;;;;;9.00;7.20;;;22.70;99.90;;;;;;11981321;28;20413;-56
2021/06/26 21:50:12;;;;;;;12.32;7.60;;;22.70;99.90;;;;;;11980356;28;20053;-54
2021/06/26 22:02:04;;;;;;;56.35;33.55;;;22.70;99.90;;;;;;11974652;28;20049;-56
2021/06/26 22:07:52;;;;;;;28.20;17.42;;;22.60;99.90;;;;;;11989059;28;20041;-57
2021/06/26 22:13:39;;;;;;;25.70;17.75;;;22.60;99.90;;;;;;11965425;28;20062;-52
2021/06/26 22:19:26;;;;;;;40.72;25.80;;;22.60;99.90;;;;;;11935813;28;20049;-57
2021/06/26 22:25:15;;;;;;;62.03;41.78;;;22.60;99.90;;;;;;11936600;28;20045;-56
2021/06/26 22:31:05;;;;;;;40.95;26.50;;;22.60;99.90;;;;;;11966067;28;20057;-53
2021/06/26 22:36:52;;;;;;;14.68;10.85;;;22.60;99.90;;;;;;11964438;28;20421;-53
2021/06/26 22:42:40;;;;;;;30.95;19.08;;;22.50;99.90;;;;;;11935388;28;20421;-56
2021/06/26 22:48:27;;;;;;;29.17;17.48;;;22.50;99.90;;;;;;11948647;28;20571;-54
2021/06/26 22:54:17;;;;;;;16.48;11.43;;;22.50;99.90;;;;;;11941306;28;20084;-55
2021/06/26 23:00:08;;;;;;;24.50;15.82;;;22.50;99.90;;;;;;11981124;28;20044;-52
2021/06/26 23:05:56;;;;;;;73.55;47.00;;;22.50;99.90;;;;;;11934330;28;20056;-52
2021/06/26 23:11:43;;;;;;;36.72;24.92;;;22.50;99.90;;;;;;11984364;28;20053;-51
2021/06/26 23:17:31;;;;;;;32.40;22.00;;;22.50;99.90;;;;;;11985580;28;20087;-55
2021/06/26 23:23:19;;;;;;;25.63;16.38;;;22.60;99.90;;;;;;11984074;28;20114;-53
2021/06/26 23:29:06;;;;;;;15.23;9.98;;;22.50;99.90;;;;;;11978544;28;20060;-53
